sensor_id;sensor_type;location;lat;lon;timestamp;pressure;altitude;pressure_sealevel;temperature
14851;BMP180;7517;48.400;11.770;2023-09-19T00:00:46;96144.00;;;20.60
14851;BMP180;7517;48.400;11.770;2023-09-19T00:03:15;96150.00;;;20.60
14851;BMP180;7517;48.400;11.770;2023-09-19T00:05:44;96143.00;;;20.60
14851;BMP180;7517;48.400;11.770;2023-09-19T00:08:12;96139.00;;;20.60
14851;BMP180;7517;48.400;11.770;2023-09-19T00:10:40;96148.00;;;20.60
14851;BMP180;7517;48.400;11.770;2023-09-19T00:13:09;96158.00;;;20.60
14851;BMP180;7517;48.400;11.770;2023-09-19T00:15:40;96153.00;;;20.60
14851;BMP180;7517;48.400;11.770;2023-09-19T00:18:08;96154.00;;;20.60
14851;BMP180;7517;48.400;11.770;2023-09-19T00:20:36;96150.00;;;20.60
14851;BMP180;7517;48.400;11.770;2023-09-19T00:23:05;96142.00;;;20.60
14851;BMP180;7517;48.400;11.770;2023-09-19T00:25:34;96138.00;;;20.60
14851;BMP180;7517;48.400;11.770;2023-09-19T00:28:04;96141.00;;;20.60
14851;BMP180;7517;48.400;11.770;2023-09-19T00:30:32;96135.00;;;20.60
14851;BMP180;7517;48.400;11.770;2023-09-19T00:32:59;96135.00;;;20.60
14851;BMP180;7517;48.400;11.770;2023-09-19T00:35:31;96139.00;;;20.50
14851;BMP180;7517;48.400;11.770;2023-09-19T00:37:59;96132.00;;;20.50
14851;BMP180;7517;48.400;11.770;2023-09-19T00:40:27;96134.00;;;20.50
14851;BMP180;7517;48.400;11.770;2023-09-19T00:42:58;96143.00;;;20.50
14851;BMP180;7517;48.400;11.770;2023-09-19T00:45:27;96136.00;;;20.50
14851;BMP180;7517;48.400;11.770;2023-09-19T00:47:55;96134.00;;;20.40
14851;BMP180;7517;48.400;11.770;2023-09-19T00:50:26;96137.00;;;20.40
14851;BMP180;7517;48.400;11.770;2023-09-19T00:52:55;96140.00;;;20.40
14851;BMP180;7517;48.400;11.770;2023-09-19T00:55:24;96157.00;;;20.40
14851;BMP180;7517;48.400;11.770;2023-09-19T00:57:56;96156.00;;;20.40
14851;BMP180;7517;48.400;11.770;2023-09-19T01:00:25;96161.00;;;20.40
14851;BMP180;7517;48.400;11.770;2023-09-19T01:02:52;96157.00;;;20.40
14851;BMP180;7517;48.400;11.770;2023-09-19T01:05:21;96163.00;;;20.40
14851;BMP180;7517;48.400;11.770;2023-09-19T01:07:49;96158.00;;;20.40
14851;BMP180;7517;48.400;11.770;2023-09-19T01:10:20;96159.00;;;20.30
14851;BMP180;7517;48.400;11.770;2023-09-19T01:12:55;96163.00;;;20.40
14851;BMP180;7517;48.400;11.770;2023-09-19T01:15:40;96168.00;;;20.40
14851;BMP180;7517;48.400;11.770;2023-09-19T01:18:21;96176.00;;;20.40
14851;BMP180;7517;48.400;11.770;2023-09-19T01:21:05;96174.00;;;20.40
14851;BMP180;7517;48.400;11.770;2023-09-19T01:24:00;96175.00;;;20.40
14851;BMP180;7517;48.400;11.770;2023-09-19T01:27:10;96173.00;;;20.40
14851;BMP180;7517;48.400;11.770;2023-09-19T01:29:48;96176.00;;;20.40
14851;BMP180;7517;48.400;11.770;2023-09-19T01:32:20;96186.00;;;20.40
14851;BMP180;7517;48.400;11.770;2023-09-19T01:34:49;96183.00;;;20.40
14851;BMP180;7517;48.400;11.770;2023-09-19T01:37:19;96181.00;;;20.40
14851;BMP180;7517;48.400;11.770;2023-09-19T01:39:56;96193.00;;;20.40
14851;BMP180;7517;48.400;11.770;2023-09-19T01:42:42;96196.00;;;20.40
14851;BMP180;7517;48.400;11.770;2023-09-19T01:45:13;96188.00;;;20.40
14851;BMP180;7517;48.400;11.770;2023-09-19T01:47:52;96195.00;;;20.40
14851;BMP180;7517;48.400;11.770;2023-09-19T01:50:30;96195.00;;;20.40
14851;BMP180;7517;48.400;11.770;2023-09-19T01:53:07;96193.00;;;20.40
14851;BMP180;7517;48.400;11.770;2023-09-19T01:55:43;96194.00;;;20.40
14851;BMP180;7517;48.400;11.770;2023-09-19T01:58:21;96184.00;;;20.40
14851;BMP180;7517;48.400;11.770;2023-09-19T02:00:51;96183.00;;;20.50
14851;BMP180;7517;48.400;11.770;2023-09-19T02:03:22;96195.00;;;20.50
14851;BMP180;7517;48.400;11.770;2023-09-19T02:05:50;96195.00;;;20.50
14851;BMP180;7517;48.400;11.770;2023-09-19T02:08:21;96192.00;;;20.50
14851;BMP180;7517;48.400;11.770;2023-09-19T02:10:50;96195.00;;;20.50
14851;BMP180;7517;48.400;11.770;2023-09-19T02:13:20;96193.00;;;20.50
14851;BMP180;7517;48.400;11.770;2023-09-19T02:15:47;96198.00;;;20.60
14851;BMP180;7517;48.400;11.770;2023-09-19T02:18:15;96202.00;;;20.60
14851;BMP180;7517;48.400;11.770;2023-09-19T02:20:44;96189.00;;;20.60
14851;BMP180;7517;48.400;11.770;2023-09-19T02:23:12;96181.00;;;20.60
14851;BMP180;7517;48.400;11.770;2023-09-19T02:25:39;96189.00;;;20.70
14851;BMP180;7517;48.400;11.770;2023-09-19T02:28:07;96188.00;;;20.70
14851;BMP180;7517;48.400;11.770;2023-09-19T02:30:35;96187.00;;;20.70
14851;BMP180;7517;48.400;11.770;2023-09-19T02:33:03;96189.00;;;20.70
14851;BMP180;7517;48.400;11.770;2023-09-19T02:35:31;96185.00;;;20.80
14851;BMP180;7517;48.400;11.770;2023-09-19T02:38:03;96201.00;;;20.80
14851;BMP180;7517;48.400;11.770;2023-09-19T02:40:32;96203.00;;;20.80
14851;BMP180;7517;48.400;11.770;2023-09-19T02:43:02;96207.00;;;20.80
14851;BMP180;7517;48.400;11.770;2023-09-19T02:45:29;96195.00;;;20.80
14851;BMP180;7517;48.400;11.770;2023-09-19T02:47:58;96198.00;;;20.90
14851;BMP180;7517;48.400;11.770;2023-09-19T02:50:25;96206.00;;;20.90
14851;BMP180;7517;48.400;11.770;2023-09-19T02:52:52;96202.00;;;20.90
14851;BMP180;7517;48.400;11.770;2023-09-19T02:55:22;96204.00;;;20.90
14851;BMP180;7517;48.400;11.770;2023-09-19T02:57:51;96213.00;;;20.90
14851;BMP180;7517;48.400;11.770;2023-09-19T03:00:21;96219.00;;;21.00
14851;BMP180;7517;48.400;11.770;2023-09-19T03:02:49;96217.00;;;21.00
14851;BMP180;7517;48.400;11.770;2023-09-19T03:05:17;96219.00;;;21.00
14851;BMP180;7517;48.400;11.770;2023-09-19T03:07:46;96221.00;;;21.00
14851;BMP180;7517;48.400;11.770;2023-09-19T03:10:16;96231.00;;;21.00
14851;BMP180;7517;48.400;11.770;2023-09-19T03:12:46;96221.00;;;21.00
14851;BMP180;7517;48.400;11.770;2023-09-19T03:15:15;96222.00;;;21.00
14851;BMP180;7517;48.400;11.770;2023-09-19T03:17:43;96220.00;;;21.00
14851;BMP180;7517;48.400;11.770;2023-09-19T03:20:12;96223.00;;;21.10
14851;BMP180;7517;48.400;11.770;2023-09-19T03:22:43;96230.00;;;21.10
14851;BMP180;7517;48.400;11.770;2023-09-19T03:25:10;96222.00;;;21.10
14851;BMP180;7517;48.400;11.770;2023-09-19T03:27:38;96228.00;;;21.10
14851;BMP180;7517;48.400;11.770;2023-09-19T03:30:08;96233.00;;;21.10
14851;BMP180;7517;48.400;11.770;2023-09-19T03:32:44;96228.00;;;21.10
14851;BMP180;7517;48.400;11.770;2023-09-19T03:35:14;96231.00;;;21.10
14851;BMP180;7517;48.400;11.770;2023-09-19T03:37:43;96229.00;;;21.10
14851;BMP180;7517;48.400;11.770;2023-09-19T03:40:11;96227.00;;;21.10
14851;BMP180;7517;48.400;11.770;2023-09-19T03:42:40;96223.00;;;21.10
14851;BMP180;7517;48.400;11.770;2023-09-19T03:45:10;96228.00;;;21.10
14851;BMP180;7517;48.400;11.770;2023-09-19T03:47:39;96230.00;;;21.10
14851;BMP180;7517;48.400;11.770;2023-09-19T03:50:07;96235.00;;;21.10
14851;BMP180;7517;48.400;11.770;2023-09-19T03:52:37;96238.00;;;21.10
14851;BMP180;7517;48.400;11.770;2023-09-19T03:55:05;96248.00;;;21.10
14851;BMP180;7517;48.400;11.770;2023-09-19T03:57:35;96252.00;;;21.10
14851;BMP180;7517;48.400;11.770;2023-09-19T04:00:06;96248.00;;;21.10
14851;BMP180;7517;48.400;11.770;2023-09-19T04:02:38;96256.00;;;21.10
14851;BMP180;7517;48.400;11.770;2023-09-19T04:05:07;96256.00;;;21.10
14851;BMP180;7517;48.400;11.770;2023-09-19T04:07:33;96254.00;;;21.10
14851;BMP180;7517;48.400;11.770;2023-09-19T04:10:01;96256.00;;;21.10
14851;BMP180;7517;48.400;11.770;2023-09-19T04:12:28;96263.00;;;21.10
14851;BMP180;7517;48.400;11.770;2023-09-19T04:14:56;96260.00;;;21.10
14851;BMP180;7517;48.400;11.770;2023-09-19T04:17:23;96263.00;;;21.10
14851;BMP180;7517;48.400;11.770;2023-09-19T04:19:51;96264.00;;;21.10
14851;BMP180;7517;48.400;11.770;2023-09-19T04:22:19;96270.00;;;21.10
14851;BMP180;7517;48.400;11.770;2023-09-19T04:24:46;96268.00;;;21.10
14851;BMP180;7517;48.400;11.770;2023-09-19T04:27:13;96275.00;;;21.10
14851;BMP180;7517;48.400;11.770;2023-09-19T04:29:41;96273.00;;;21.10
14851;BMP180;7517;48.400;11.770;2023-09-19T04:32:08;96272.00;;;21.10
14851;BMP180;7517;48.400;11.770;2023-09-19T04:34:36;96274.00;;;21.10
14851;BMP180;7517;48.400;11.770;2023-09-19T04:37:05;96267.00;;;21.10
14851;BMP180;7517;48.400;11.770;2023-09-19T04:39:32;96280.00;;;21.10
14851;BMP180;7517;48.400;11.770;2023-09-19T04:42:00;96282.00;;;21.10
14851;BMP180;7517;48.400;11.770;2023-09-19T04:44:27;96289.00;;;21.10
14851;BMP180;7517;48.400;11.770;2023-09-19T04:46:54;96289.00;;;21.20
14851;BMP180;7517;48.400;11.770;2023-09-19T04:49:21;96285.00;;;21.20
14851;BMP180;7517;48.400;11.770;2023-09-19T04:51:49;96290.00;;;21.20
14851;BMP180;7517;48.400;11.770;2023-09-19T04:54:17;96292.00;;;21.20
14851;BMP180;7517;48.400;11.770;2023-09-19T04:56:44;96296.00;;;21.20
14851;BMP180;7517;48.400;11.770;2023-09-19T04:59:12;96296.00;;;21.20
14851;BMP180;7517;48.400;11.770;2023-09-19T05:01:40;96298.00;;;21.20
14851;BMP180;7517;48.400;11.770;2023-09-19T05:04:07;96300.00;;;21.20
14851;BMP180;7517;48.400;11.770;2023-09-19T05:06:35;96301.00;;;21.20
14851;BMP180;7517;48.400;11.770;2023-09-19T05:09:02;96303.00;;;21.20
14851;BMP180;7517;48.400;11.770;2023-09-19T05:11:32;96305.00;;;21.30
14851;BMP180;7517;48.400;11.770;2023-09-19T05:13:59;96313.00;;;21.30
14851;BMP180;7517;48.400;11.770;2023-09-19T05:16:30;96310.00;;;21.30
14851;BMP180;7517;48.400;11.770;2023-09-19T05:18:58;96320.00;;;21.30
14851;BMP180;7517;48.400;11.770;2023-09-19T05:21:26;96320.00;;;21.30
14851;BMP180;7517;48.400;11.770;2023-09-19T05:23:54;96332.00;;;21.30
14851;BMP180;7517;48.400;11.770;2023-09-19T05:26:22;96319.00;;;21.30
14851;BMP180;7517;48.400;11.770;2023-09-19T05:28:51;96337.00;;;21.30
14851;BMP180;7517;48.400;11.770;2023-09-19T05:31:18;96333.00;;;21.30
14851;BMP180;7517;48.400;11.770;2023-09-19T05:33:47;96341.00;;;21.30
14851;BMP180;7517;48.400;11.770;2023-09-19T05:36:17;96336.00;;;21.30
14851;BMP180;7517;48.400;11.770;2023-09-19T05:38:44;96341.00;;;21.40
14851;BMP180;7517;48.400;11.770;2023-09-19T05:41:14;96337.00;;;21.40
14851;BMP180;7517;48.400;11.770;2023-09-19T05:43:41;96343.00;;;21.40
14851;BMP180;7517;48.400;11.770;2023-09-19T05:46:10;96337.00;;;21.40
14851;BMP180;7517;48.400;11.770;2023-09-19T05:48:38;96343.00;;;21.40
14851;BMP180;7517;48.400;11.770;2023-09-19T05:51:07;96339.00;;;21.40
14851;BMP180;7517;48.400;11.770;2023-09-19T05:53:35;96338.00;;;21.40
14851;BMP180;7517;48.400;11.770;2023-09-19T05:56:03;96336.00;;;21.40
14851;BMP180;7517;48.400;11.770;2023-09-19T05:58:30;96352.00;;;21.40
14851;BMP180;7517;48.400;11.770;2023-09-19T06:00:57;96343.00;;;21.40
14851;BMP180;7517;48.400;11.770;2023-09-19T06:03:26;96340.00;;;21.40
14851;BMP180;7517;48.400;11.770;2023-09-19T06:05:55;96350.00;;;21.40
14851;BMP180;7517;48.400;11.770;2023-09-19T06:08:23;96349.00;;;21.40
14851;BMP180;7517;48.400;11.770;2023-09-19T06:10:51;96351.00;;;21.40
14851;BMP180;7517;48.400;11.770;2023-09-19T06:13:19;96351.00;;;21.40
14851;BMP180;7517;48.400;11.770;2023-09-19T06:15:46;96350.00;;;21.40
14851;BMP180;7517;48.400;11.770;2023-09-19T06:18:14;96356.00;;;21.40
14851;BMP180;7517;48.400;11.770;2023-09-19T06:20:46;96350.00;;;21.40
14851;BMP180;7517;48.400;11.770;2023-09-19T06:23:17;96354.00;;;21.40
14851;BMP180;7517;48.400;11.770;2023-09-19T06:25:45;96356.00;;;21.40
14851;BMP180;7517;48.400;11.770;2023-09-19T06:28:14;96359.00;;;21.40
14851;BMP180;7517;48.400;11.770;2023-09-19T06:30:44;96364.00;;;21.40
14851;BMP180;7517;48.400;11.770;2023-09-19T06:33:11;96360.00;;;21.30
14851;BMP180;7517;48.400;11.770;2023-09-19T06:35:39;96371.00;;;21.40
14851;BMP180;7517;48.400;11.770;2023-09-19T06:38:08;96374.00;;;21.30
14851;BMP180;7517;48.400;11.770;2023-09-19T06:40:39;96378.00;;;21.30
14851;BMP180;7517;48.400;11.770;2023-09-19T06:43:10;96381.00;;;21.30
14851;BMP180;7517;48.400;11.770;2023-09-19T06:45:38;96389.00;;;21.30
14851;BMP180;7517;48.400;11.770;2023-09-19T06:48:07;96387.00;;;21.30
14851;BMP180;7517;48.400;11.770;2023-09-19T06:50:36;96384.00;;;21.30
14851;BMP180;7517;48.400;11.770;2023-09-19T06:53:04;96390.00;;;21.30
14851;BMP180;7517;48.400;11.770;2023-09-19T06:55:33;96391.00;;;21.30
14851;BMP180;7517;48.400;11.770;2023-09-19T06:58:00;96388.00;;;21.30
14851;BMP180;7517;48.400;11.770;2023-09-19T07:00:27;96391.00;;;21.40
14851;BMP180;7517;48.400;11.770;2023-09-19T07:02:58;96389.00;;;21.40
14851;BMP180;7517;48.400;11.770;2023-09-19T07:05:27;96390.00;;;21.40
14851;BMP180;7517;48.400;11.770;2023-09-19T07:07:55;96395.00;;;21.40
14851;BMP180;7517;48.400;11.770;2023-09-19T07:10:22;96400.00;;;21.40
14851;BMP180;7517;48.400;11.770;2023-09-19T07:12:57;96396.00;;;21.40
14851;BMP180;7517;48.400;11.770;2023-09-19T07:15:24;96410.00;;;21.40
14851;BMP180;7517;48.400;11.770;2023-09-19T07:17:52;96404.00;;;21.50
14851;BMP180;7517;48.400;11.770;2023-09-19T07:20:22;96404.00;;;21.50
14851;BMP180;7517;48.400;11.770;2023-09-19T07:22:51;96415.00;;;21.60
14851;BMP180;7517;48.400;11.770;2023-09-19T07:25:20;96417.00;;;21.70
14851;BMP180;7517;48.400;11.770;2023-09-19T07:27:48;96411.00;;;21.80
14851;BMP180;7517;48.400;11.770;2023-09-19T07:30:18;96408.00;;;21.80
14851;BMP180;7517;48.400;11.770;2023-09-19T07:32:45;96420.00;;;21.90
14851;BMP180;7517;48.400;11.770;2023-09-19T07:35:12;96416.00;;;22.00
14851;BMP180;7517;48.400;11.770;2023-09-19T07:37:40;96406.00;;;22.10
14851;BMP180;7517;48.400;11.770;2023-09-19T07:40:09;96419.00;;;22.10
14851;BMP180;7517;48.400;11.770;2023-09-19T07:42:37;96414.00;;;22.20
14851;BMP180;7517;48.400;11.770;2023-09-19T07:45:07;96412.00;;;22.20
14851;BMP180;7517;48.400;11.770;2023-09-19T07:47:36;96421.00;;;22.30
14851;BMP180;7517;48.400;11.770;2023-09-19T07:50:04;96420.00;;;22.30
14851;BMP180;7517;48.400;11.770;2023-09-19T07:52:33;96422.00;;;22.40
14851;BMP180;7517;48.400;11.770;2023-09-19T07:55:00;96425.00;;;22.50
14851;BMP180;7517;48.400;11.770;2023-09-19T07:57:34;96421.00;;;22.60
14851;BMP180;7517;48.400;11.770;2023-09-19T08:00:04;96423.00;;;22.60
14851;BMP180;7517;48.400;11.770;2023-09-19T08:02:36;96435.00;;;22.70
14851;BMP180;7517;48.400;11.770;2023-09-19T08:05:04;96438.00;;;22.80
14851;BMP180;7517;48.400;11.770;2023-09-19T08:07:35;96434.00;;;22.80
14851;BMP180;7517;48.400;11.770;2023-09-19T08:10:03;96433.00;;;22.90
14851;BMP180;7517;48.400;11.770;2023-09-19T08:12:33;96439.00;;;23.00
14851;BMP180;7517;48.400;11.770;2023-09-19T08:15:02;96440.00;;;23.00
14851;BMP180;7517;48.400;11.770;2023-09-19T08:17:35;96439.00;;;23.10
14851;BMP180;7517;48.400;11.770;2023-09-19T08:20:03;96438.00;;;23.10
14851;BMP180;7517;48.400;11.770;2023-09-19T08:22:31;96442.00;;;23.20
14851;BMP180;7517;48.400;11.770;2023-09-19T08:24:58;96443.00;;;23.30
14851;BMP180;7517;48.400;11.770;2023-09-19T08:27:30;96442.00;;;23.40
14851;BMP180;7517;48.400;11.770;2023-09-19T08:29:57;96457.00;;;23.50
14851;BMP180;7517;48.400;11.770;2023-09-19T08:32:25;96455.00;;;23.60
14851;BMP180;7517;48.400;11.770;2023-09-19T08:34:54;96452.00;;;23.70
14851;BMP180;7517;48.400;11.770;2023-09-19T08:37:21;96456.00;;;23.80
14851;BMP180;7517;48.400;11.770;2023-09-19T08:39:49;96457.00;;;23.80
14851;BMP180;7517;48.400;11.770;2023-09-19T08:42:16;96460.00;;;23.90
14851;BMP180;7517;48.400;11.770;2023-09-19T08:44:45;96454.00;;;24.00
14851;BMP180;7517;48.400;11.770;2023-09-19T08:47:15;96450.00;;;24.10
14851;BMP180;7517;48.400;11.770;2023-09-19T08:49:57;96455.00;;;24.20
14851;BMP180;7517;48.400;11.770;2023-09-19T08:52:32;96456.00;;;24.30
14851;BMP180;7517;48.400;11.770;2023-09-19T08:55:06;96452.00;;;24.50
14851;BMP180;7517;48.400;11.770;2023-09-19T08:57:36;96456.00;;;24.60
14851;BMP180;7517;48.400;11.770;2023-09-19T09:00:09;96456.00;;;24.70
14851;BMP180;7517;48.400;11.770;2023-09-19T09:02:39;96457.00;;;24.80
14851;BMP180;7517;48.400;11.770;2023-09-19T09:05:10;96459.00;;;24.90
14851;BMP180;7517;48.400;11.770;2023-09-19T09:07:38;96458.00;;;25.00
14851;BMP180;7517;48.400;11.770;2023-09-19T09:10:06;96455.00;;;25.10
14851;BMP180;7517;48.400;11.770;2023-09-19T09:12:35;96460.00;;;25.30
14851;BMP180;7517;48.400;11.770;2023-09-19T09:15:06;96457.00;;;25.40
14851;BMP180;7517;48.400;11.770;2023-09-19T09:17:34;96455.00;;;25.50
14851;BMP180;7517;48.400;11.770;2023-09-19T09:20:01;96466.00;;;25.60
14851;BMP180;7517;48.400;11.770;2023-09-19T09:22:32;96473.00;;;25.70
14851;BMP180;7517;48.400;11.770;2023-09-19T09:24:59;96474.00;;;25.70
14851;BMP180;7517;48.400;11.770;2023-09-19T09:27:29;96462.00;;;25.80
14851;BMP180;7517;48.400;11.770;2023-09-19T09:29:57;96469.00;;;25.80
14851;BMP180;7517;48.400;11.770;2023-09-19T09:32:26;96467.00;;;25.80
14851;BMP180;7517;48.400;11.770;2023-09-19T09:34:57;96469.00;;;25.80
14851;BMP180;7517;48.400;11.770;2023-09-19T09:37:26;96473.00;;;25.80
14851;BMP180;7517;48.400;11.770;2023-09-19T09:39:59;96479.00;;;25.80
14851;BMP180;7517;48.400;11.770;2023-09-19T09:42:45;96470.00;;;25.70
14851;BMP180;7517;48.400;11.770;2023-09-19T09:45:17;96472.00;;;25.70
14851;BMP180;7517;48.400;11.770;2023-09-19T09:47:54;96460.00;;;25.70
14851;BMP180;7517;48.400;11.770;2023-09-19T09:50:29;96470.00;;;25.60
14851;BMP180;7517;48.400;11.770;2023-09-19T09:53:20;96462.00;;;25.50
14851;BMP180;7517;48.400;11.770;2023-09-19T09:56:00;96465.00;;;25.50
14851;BMP180;7517;48.400;11.770;2023-09-19T09:58:29;96460.00;;;25.40
14851;BMP180;7517;48.400;11.770;2023-09-19T10:00:58;96466.00;;;25.30
14851;BMP180;7517;48.400;11.770;2023-09-19T10:03:34;96467.00;;;25.30
14851;BMP180;7517;48.400;11.770;2023-09-19T10:06:07;96475.00;;;25.30
14851;BMP180;7517;48.400;11.770;2023-09-19T10:09:04;96475.00;;;25.30
14851;BMP180;7517;48.400;11.770;2023-09-19T10:11:44;96467.00;;;25.30
14851;BMP180;7517;48.400;11.770;2023-09-19T10:14:14;96475.00;;;25.30
14851;BMP180;7517;48.400;11.770;2023-09-19T10:16:46;96470.00;;;25.20
14851;BMP180;7517;48.400;11.770;2023-09-19T10:19:23;96475.00;;;25.20
14851;BMP180;7517;48.400;11.770;2023-09-19T10:21:53;96473.00;;;25.20
14851;BMP180;7517;48.400;11.770;2023-09-19T10:24:22;96476.00;;;25.30
14851;BMP180;7517;48.400;11.770;2023-09-19T10:26:53;96476.00;;;25.30
14851;BMP180;7517;48.400;11.770;2023-09-19T10:29:21;96477.00;;;25.30
14851;BMP180;7517;48.400;11.770;2023-09-19T10:31:52;96485.00;;;25.20
14851;BMP180;7517;48.400;11.770;2023-09-19T10:34:21;96491.00;;;25.20
14851;BMP180;7517;48.400;11.770;2023-09-19T10:36:52;96497.00;;;25.10
14851;BMP180;7517;48.400;11.770;2023-09-19T10:39:19;96520.00;;;25.10
14851;BMP180;7517;48.400;11.770;2023-09-19T10:41:53;96534.00;;;25.10
14851;BMP180;7517;48.400;11.770;2023-09-19T10:44:25;96521.00;;;25.00
14851;BMP180;7517;48.400;11.770;2023-09-19T10:46:54;96530.00;;;24.90
14851;BMP180;7517;48.400;11.770;2023-09-19T10:49:23;96531.00;;;24.80
14851;BMP180;7517;48.400;11.770;2023-09-19T10:51:58;96528.00;;;24.60
14851;BMP180;7517;48.400;11.770;2023-09-19T10:54:33;96520.00;;;24.50
14851;BMP180;7517;48.400;11.770;2023-09-19T10:57:04;96524.00;;;24.30
14851;BMP180;7517;48.400;11.770;2023-09-19T10:59:34;96523.00;;;24.20
14851;BMP180;7517;48.400;11.770;2023-09-19T11:02:17;96522.00;;;24.00
14851;BMP180;7517;48.400;11.770;2023-09-19T11:04:45;96521.00;;;23.90
14851;BMP180;7517;48.400;11.770;2023-09-19T11:07:16;96525.00;;;23.80
14851;BMP180;7517;48.400;11.770;2023-09-19T11:09:47;96528.00;;;23.80
14851;BMP180;7517;48.400;11.770;2023-09-19T11:12:50;96522.00;;;23.60
14851;BMP180;7517;48.400;11.770;2023-09-19T11:18:55;96515.00;;;23.50
14851;BMP180;7517;48.400;11.770;2023-09-19T11:21:52;96517.00;;;23.50
14851;BMP180;7517;48.400;11.770;2023-09-19T11:24:31;96513.00;;;23.40
14851;BMP180;7517;48.400;11.770;2023-09-19T11:27:15;96508.00;;;23.40
14851;BMP180;7517;48.400;11.770;2023-09-19T11:29:45;96507.00;;;23.40
14851;BMP180;7517;48.400;11.770;2023-09-19T11:32:14;96502.00;;;23.40
14851;BMP180;7517;48.400;11.770;2023-09-19T11:34:46;96496.00;;;23.40
14851;BMP180;7517;48.400;11.770;2023-09-19T11:38:04;96490.00;;;23.40
14851;BMP180;7517;48.400;11.770;2023-09-19T11:40:45;96490.00;;;23.50
14851;BMP180;7517;48.400;11.770;2023-09-19T11:43:33;96489.00;;;23.50
14851;BMP180;7517;48.400;11.770;2023-09-19T11:46:10;96490.00;;;23.50
14851;BMP180;7517;48.400;11.770;2023-09-19T11:48:41;96489.00;;;23.50
14851;BMP180;7517;48.400;11.770;2023-09-19T11:51:15;96495.00;;;23.60
14851;BMP180;7517;48.400;11.770;2023-09-19T11:53:49;96495.00;;;23.60
14851;BMP180;7517;48.400;11.770;2023-09-19T11:56:18;96490.00;;;23.60
14851;BMP180;7517;48.400;11.770;2023-09-19T11:58:46;96485.00;;;23.60
14851;BMP180;7517;48.400;11.770;2023-09-19T12:01:23;96480.00;;;23.70
14851;BMP180;7517;48.400;11.770;2023-09-19T12:03:54;96479.00;;;23.80
14851;BMP180;7517;48.400;11.770;2023-09-19T12:06:25;96479.00;;;23.80
14851;BMP180;7517;48.400;11.770;2023-09-19T12:08:53;96484.00;;;23.90
14851;BMP180;7517;48.400;11.770;2023-09-19T12:11:22;96485.00;;;23.90
14851;BMP180;7517;48.400;11.770;2023-09-19T12:13:50;96479.00;;;24.00
14851;BMP180;7517;48.400;11.770;2023-09-19T12:16:21;96478.00;;;24.00
14851;BMP180;7517;48.400;11.770;2023-09-19T12:18:50;96486.00;;;24.10
14851;BMP180;7517;48.400;11.770;2023-09-19T12:21:28;96488.00;;;24.10
14851;BMP180;7517;48.400;11.770;2023-09-19T12:24:11;96490.00;;;24.10
14851;BMP180;7517;48.400;11.770;2023-09-19T12:26:43;96487.00;;;24.10
14851;BMP180;7517;48.400;11.770;2023-09-19T12:29:17;96479.00;;;24.10
14851;BMP180;7517;48.400;11.770;2023-09-19T12:31:56;96483.00;;;24.10
14851;BMP180;7517;48.400;11.770;2023-09-19T12:34:26;96475.00;;;24.10
14851;BMP180;7517;48.400;11.770;2023-09-19T12:37:08;96473.00;;;24.20
14851;BMP180;7517;48.400;11.770;2023-09-19T12:39:40;96478.00;;;24.20
14851;BMP180;7517;48.400;11.770;2023-09-19T12:42:15;96477.00;;;24.30
14851;BMP180;7517;48.400;11.770;2023-09-19T12:44:47;96485.00;;;24.30
14851;BMP180;7517;48.400;11.770;2023-09-19T12:47:18;96489.00;;;24.30
14851;BMP180;7517;48.400;11.770;2023-09-19T12:50:11;96479.00;;;24.30
14851;BMP180;7517;48.400;11.770;2023-09-19T12:52:45;96491.00;;;24.40
14851;BMP180;7517;48.400;11.770;2023-09-19T12:55:22;96490.00;;;24.40
14851;BMP180;7517;48.400;11.770;2023-09-19T12:58:08;96493.00;;;24.40
14851;BMP180;7517;48.400;11.770;2023-09-19T13:00:39;96495.00;;;24.50
14851;BMP180;7517;48.400;11.770;2023-09-19T13:03:14;96494.00;;;24.50
14851;BMP180;7517;48.400;11.770;2023-09-19T13:05:49;96493.00;;;24.50
14851;BMP180;7517;48.400;11.770;2023-09-19T13:08:20;96495.00;;;24.40
14851;BMP180;7517;48.400;11.770;2023-09-19T13:11:11;96491.00;;;24.40
14851;BMP180;7517;48.400;11.770;2023-09-19T13:13:43;96479.00;;;24.40
14851;BMP180;7517;48.400;11.770;2023-09-19T13:16:12;96476.00;;;24.40
14851;BMP180;7517;48.400;11.770;2023-09-19T13:18:50;96475.00;;;24.40
14851;BMP180;7517;48.400;11.770;2023-09-19T13:21:29;96470.00;;;24.40
14851;BMP180;7517;48.400;11.770;2023-09-19T13:24:19;96469.00;;;24.40
14851;BMP180;7517;48.400;11.770;2023-09-19T13:26:47;96461.00;;;24.40
14851;BMP180;7517;48.400;11.770;2023-09-19T13:29:15;96460.00;;;24.40
14851;BMP180;7517;48.400;11.770;2023-09-19T13:31:46;96465.00;;;24.40
14851;BMP180;7517;48.400;11.770;2023-09-19T13:34:15;96455.00;;;24.40
14851;BMP180;7517;48.400;11.770;2023-09-19T13:36:43;96447.00;;;24.40
14851;BMP180;7517;48.400;11.770;2023-09-19T13:39:11;96447.00;;;24.40
14851;BMP180;7517;48.400;11.770;2023-09-19T13:41:39;96438.00;;;24.40
14851;BMP180;7517;48.400;11.770;2023-09-19T13:44:07;96431.00;;;24.40
14851;BMP180;7517;48.400;11.770;2023-09-19T13:46:36;96433.00;;;24.40
14851;BMP180;7517;48.400;11.770;2023-09-19T13:49:04;96434.00;;;24.50
14851;BMP180;7517;48.400;11.770;2023-09-19T13:51:32;96436.00;;;24.50
14851;BMP180;7517;48.400;11.770;2023-09-19T13:54:00;96437.00;;;24.50
14851;BMP180;7517;48.400;11.770;2023-09-19T13:56:27;96427.00;;;24.60
14851;BMP180;7517;48.400;11.770;2023-09-19T13:58:57;96426.00;;;24.60
14851;BMP180;7517;48.400;11.770;2023-09-19T14:01:24;96422.00;;;24.60
14851;BMP180;7517;48.400;11.770;2023-09-19T14:03:52;96420.00;;;24.60
14851;BMP180;7517;48.400;11.770;2023-09-19T14:06:22;96419.00;;;24.60
14851;BMP180;7517;48.400;11.770;2023-09-19T14:08:51;96419.00;;;24.70
14851;BMP180;7517;48.400;11.770;2023-09-19T14:11:18;96419.00;;;24.70
14851;BMP180;7517;48.400;11.770;2023-09-19T14:13:45;96412.00;;;24.70
14851;BMP180;7517;48.400;11.770;2023-09-19T14:16:16;96424.00;;;24.70
14851;BMP180;7517;48.400;11.770;2023-09-19T14:18:45;96414.00;;;24.80
14851;BMP180;7517;48.400;11.770;2023-09-19T14:21:13;96420.00;;;24.80
14851;BMP180;7517;48.400;11.770;2023-09-19T14:23:41;96411.00;;;24.80
14851;BMP180;7517;48.400;11.770;2023-09-19T14:26:11;96412.00;;;24.90
14851;BMP180;7517;48.400;11.770;2023-09-19T14:28:38;96414.00;;;24.90
14851;BMP180;7517;48.400;11.770;2023-09-19T14:31:06;96407.00;;;24.90
14851;BMP180;7517;48.400;11.770;2023-09-19T14:33:34;96407.00;;;25.00